createdAt,value
2023-03-31T00:00:42.833Z,24.76
2023-03-31T00:03:23.246Z,24.75
2023-03-31T00:06:00.113Z,24.73
2023-03-31T00:08:36.618Z,24.73
2023-03-31T00:11:13.055Z,24.77
2023-03-31T00:13:43.319Z,24.77
2023-03-31T00:16:13.618Z,24.73
2023-03-31T00:18:48.694Z,24.72
2023-03-31T00:21:41.907Z,24.68
2023-03-31T00:24:13.893Z,24.69
2023-03-31T00:26:44.516Z,24.69
2023-03-31T00:29:15.436Z,24.73
2023-03-31T00:31:45.677Z,24.76
2023-03-31T00:34:15.980Z,24.79
2023-03-31T00:36:48.860Z,24.73
2023-03-31T00:39:21.254Z,24.65
2023-03-31T00:41:51.810Z,24.65
2023-03-31T00:44:25.651Z,24.73
2023-03-31T00:46:55.770Z,24.77
2023-03-31T00:49:32.879Z,24.65
2023-03-31T00:52:11.565Z,24.62
2023-03-31T00:54:44.839Z,24.58
2023-03-31T00:57:16.427Z,24.53
2023-03-31T00:59:53.845Z,24.49
2023-03-31T01:02:28.282Z,24.51
2023-03-31T01:05:03.442Z,24.49
2023-03-31T01:07:48.957Z,24.49
2023-03-31T01:10:19.608Z,24.42
2023-03-31T01:12:55.212Z,24.39
2023-03-31T01:15:25.729Z,24.42
2023-03-31T01:17:58.849Z,24.35
2023-03-31T01:20:59.268Z,24.39
2023-03-31T01:23:47.647Z,24.40
2023-03-31T01:26:39.916Z,24.45
2023-03-31T01:29:17.995Z,24.52
2023-03-31T01:32:27.768Z,24.48
2023-03-31T01:35:22.392Z,24.52
2023-03-31T01:38:20.354Z,24.52
2023-03-31T01:41:00.189Z,24.48
2023-03-31T01:44:09.592Z,24.51
2023-03-31T01:47:12.440Z,24.49
2023-03-31T01:49:57.499Z,24.48
2023-03-31T01:52:48.704Z,24.39
2023-03-31T01:55:44.900Z,24.28
2023-03-31T01:58:27.096Z,24.18
2023-03-31T02:01:04.858Z,24.26
2023-03-31T02:03:42.786Z,24.24
2023-03-31T02:06:19.474Z,24.17
2023-03-31T02:09:13.699Z,24.12
2023-03-31T02:11:45.484Z,24.18
2023-03-31T02:14:20.788Z,24.12
2023-03-31T02:16:59.574Z,24.11
2023-03-31T02:19:37.025Z,24.08
2023-03-31T02:22:09.341Z,24.17
2023-03-31T02:24:42.611Z,24.09
2023-03-31T02:27:33.534Z,24.07
2023-03-31T02:30:05.365Z,24.18
2023-03-31T02:32:47.938Z,24.07
2023-03-31T02:35:21.677Z,23.97
2023-03-31T02:37:51.932Z,23.88
2023-03-31T02:40:28.792Z,23.90
2023-03-31T02:42:58.980Z,23.88
2023-03-31T02:45:47.222Z,23.73
2023-03-31T02:48:20.531Z,23.68
2023-03-31T02:51:11.030Z,23.70
2023-03-31T02:54:05.710Z,23.66
2023-03-31T02:57:03.460Z,23.63
2023-03-31T02:59:42.918Z,23.58
2023-03-31T03:02:28.691Z,23.60
2023-03-31T03:05:07.932Z,23.60
2023-03-31T03:07:49.277Z,23.56
2023-03-31T03:10:47.912Z,23.57
2023-03-31T03:13:37.424Z,23.51
2023-03-31T03:16:20.217Z,23.47
2023-03-31T03:19:04.615Z,23.37
2023-03-31T03:21:35.491Z,23.33
2023-03-31T03:24:05.974Z,23.40
2023-03-31T03:26:36.456Z,23.30
2023-03-31T03:29:06.700Z,23.34
2023-03-31T03:31:37.009Z,23.27
2023-03-31T03:34:08.220Z,23.12
2023-03-31T03:36:39.330Z,23.05
2023-03-31T03:39:09.962Z,23.05
2023-03-31T03:41:40.903Z,23.05
2023-03-31T03:44:10.989Z,23.06
2023-03-31T03:46:41.246Z,23.06
2023-03-31T03:49:11.557Z,23.10
2023-03-31T03:51:42.193Z,23.06
2023-03-31T03:54:12.363Z,23.05
2023-03-31T03:56:42.245Z,23.13
2023-03-31T03:59:13.811Z,23.19
2023-03-31T04:01:45.201Z,23.16
2023-03-31T04:04:14.851Z,23.02
2023-03-31T04:06:44.830Z,23.13
2023-03-31T04:09:14.940Z,23.19
2023-03-31T04:11:44.978Z,23.17
2023-03-31T04:14:15.176Z,23.16
2023-03-31T04:16:47.855Z,23.15
2023-03-31T04:19:18.866Z,23.16
2023-03-31T04:21:51.896Z,23.12
2023-03-31T04:24:22.913Z,22.86
2023-03-31T04:26:53.060Z,22.81
2023-03-31T04:29:23.813Z,22.78
2023-03-31T04:31:55.249Z,22.78
2023-03-31T04:34:28.025Z,22.85
2023-03-31T04:37:00.719Z,22.84
2023-03-31T04:39:32.081Z,22.91
2023-03-31T04:42:03.477Z,22.92
2023-03-31T04:44:34.041Z,22.91
2023-03-31T04:47:04.184Z,22.92
2023-03-31T04:49:34.930Z,22.82
2023-03-31T04:52:05.115Z,22.81
2023-03-31T04:54:35.289Z,22.82
2023-03-31T04:57:05.523Z,22.64
2023-03-31T04:59:36.089Z,22.51
2023-03-31T05:02:06.321Z,22.47
2023-03-31T05:04:37.172Z,22.43
2023-03-31T05:07:07.392Z,22.40
2023-03-31T05:09:37.607Z,22.35
2023-03-31T05:12:08.068Z,22.38
2023-03-31T05:14:38.821Z,22.37
2023-03-31T05:17:08.814Z,22.31
2023-03-31T05:19:38.850Z,22.28
2023-03-31T05:22:09.038Z,22.28
2023-03-31T05:24:38.846Z,22.27
2023-03-31T05:27:08.912Z,22.25
2023-03-31T05:29:38.559Z,22.28
2023-03-31T05:32:08.410Z,22.30
2023-03-31T05:34:38.824Z,22.33
2023-03-31T05:37:08.887Z,22.27
2023-03-31T05:39:39.001Z,22.25
2023-03-31T05:42:08.887Z,22.27
2023-03-31T05:44:39.136Z,22.28
2023-03-31T05:47:09.228Z,22.35
2023-03-31T05:49:39.885Z,22.45
2023-03-31T05:52:11.345Z,22.45
2023-03-31T05:54:42.182Z,22.49
2023-03-31T05:57:12.998Z,22.57
2023-03-31T05:59:44.159Z,22.57
2023-03-31T06:02:17.367Z,22.62
2023-03-31T06:04:47.874Z,22.61
2023-03-31T06:07:19.062Z,22.61
2023-03-31T06:09:49.300Z,22.58
2023-03-31T06:12:19.537Z,22.55
2023-03-31T06:14:49.670Z,22.55
2023-03-31T06:17:19.326Z,22.52
2023-03-31T06:19:49.102Z,22.51
2023-03-31T06:22:18.727Z,22.55
2023-03-31T06:24:48.491Z,22.52
2023-03-31T06:27:18.376Z,22.51
2023-03-31T06:29:48.449Z,22.49
2023-03-31T06:32:18.591Z,22.47
2023-03-31T06:34:48.349Z,22.40
2023-03-31T06:37:18.121Z,22.35
2023-03-31T06:39:47.859Z,22.28
2023-03-31T06:42:17.885Z,22.18
2023-03-31T06:44:48.856Z,22.21
2023-03-31T06:47:19.112Z,22.25
2023-03-31T06:49:49.607Z,22.24
2023-03-31T06:52:19.800Z,22.27
2023-03-31T06:54:49.661Z,22.24
2023-03-31T06:57:19.585Z,22.27
2023-03-31T06:59:49.509Z,22.24
2023-03-31T07:02:19.818Z,22.24
2023-03-31T07:04:50.068Z,22.22
2023-03-31T07:07:20.474Z,22.21
2023-03-31T07:09:50.664Z,22.17
2023-03-31T07:12:21.794Z,22.16
2023-03-31T07:14:51.851Z,22.14
2023-03-31T07:17:22.384Z,22.11
2023-03-31T07:19:52.513Z,22.18
2023-03-31T07:22:22.100Z,22.13
2023-03-31T07:24:51.954Z,22.08
2023-03-31T07:27:23.541Z,22.07
2023-03-31T07:29:54.980Z,22.07
2023-03-31T07:32:25.248Z,22.07
2023-03-31T07:34:57.058Z,21.98
2023-03-31T07:37:26.794Z,21.86
2023-03-31T07:39:56.724Z,21.89
2023-03-31T07:42:26.642Z,21.94
2023-03-31T07:44:56.810Z,21.97
2023-03-31T07:47:27.461Z,21.98
2023-03-31T07:49:57.722Z,22.00
2023-03-31T07:52:27.848Z,21.98
2023-03-31T07:54:57.702Z,22.00
2023-03-31T07:57:27.567Z,21.98
2023-03-31T07:59:57.624Z,21.93
2023-03-31T08:02:27.881Z,21.70
2023-03-31T08:04:58.438Z,21.73
2023-03-31T08:07:32.024Z,21.82
2023-03-31T08:10:04.598Z,21.87
2023-03-31T08:12:34.776Z,21.86
2023-03-31T08:15:04.606Z,21.86
2023-03-31T08:17:34.690Z,21.87
2023-03-31T08:20:08.297Z,21.89
2023-03-31T08:22:39.602Z,21.89
2023-03-31T08:25:10.820Z,21.87
2023-03-31T08:27:42.231Z,21.85
2023-03-31T08:30:13.551Z,21.83
2023-03-31T08:32:43.658Z,21.82
2023-03-31T08:35:13.746Z,21.73
2023-03-31T08:37:44.127Z,21.76
2023-03-31T08:40:21.796Z,21.73
2023-03-31T08:43:04.180Z,21.77
2023-03-31T08:45:41.454Z,21.73
2023-03-31T08:48:28.524Z,21.69
2023-03-31T08:51:08.209Z,21.72
2023-03-31T08:53:45.050Z,21.72
2023-03-31T08:56:20.161Z,21.75
2023-03-31T08:58:53.364Z,21.73
2023-03-31T09:01:52.282Z,21.75
2023-03-31T09:05:07.029Z,21.73
2023-03-31T09:07:55.682Z,21.70
2023-03-31T09:10:30.102Z,21.67
2023-03-31T09:13:12.400Z,21.65
2023-03-31T09:16:08.271Z,21.63
2023-03-31T09:18:41.822Z,21.65
2023-03-31T09:21:30.094Z,21.65
2023-03-31T09:24:24.939Z,21.57
2023-03-31T09:27:08.634Z,21.45
2023-03-31T09:29:47.034Z,21.45
2023-03-31T09:32:26.341Z,21.45
2023-03-31T09:35:26.537Z,21.47
2023-03-31T09:37:57.234Z,21.43
2023-03-31T09:40:29.750Z,21.24
2023-03-31T09:43:08.768Z,21.29
2023-03-31T09:45:39.032Z,21.41
2023-03-31T09:48:32.142Z,21.46
2023-03-31T09:51:06.152Z,21.41
2023-03-31T09:53:54.328Z,21.36
2023-03-31T09:56:45.252Z,21.28
2023-03-31T09:59:25.207Z,21.25
2023-03-31T10:02:00.403Z,21.19
2023-03-31T10:04:34.442Z,21.31
2023-03-31T10:07:07.170Z,21.55
2023-03-31T10:09:40.593Z,21.69
2023-03-31T10:12:25.848Z,21.77
2023-03-31T10:15:04.401Z,21.83
2023-03-31T10:17:47.137Z,21.87
2023-03-31T10:20:39.489Z,21.86
2023-03-31T10:23:18.718Z,21.82
2023-03-31T10:25:49.626Z,21.87
2023-03-31T10:28:22.339Z,21.94
2023-03-31T10:30:59.071Z,22.03
2023-03-31T10:33:32.980Z,22.17
2023-03-31T10:36:10.241Z,22.28
2023-03-31T10:38:46.247Z,22.27
2023-03-31T10:41:22.821Z,22.31
2023-03-31T10:43:58.096Z,22.38
2023-03-31T10:46:51.473Z,22.33
2023-03-31T10:49:24.626Z,22.38
2023-03-31T10:52:00.083Z,22.45
2023-03-31T10:54:30.285Z,22.55
2023-03-31T10:57:02.708Z,22.68
2023-03-31T10:59:53.104Z,22.71
2023-03-31T11:02:47.872Z,22.76
2023-03-31T11:05:32.828Z,22.72
2023-03-31T11:08:29.398Z,22.67
2023-03-31T11:11:10.525Z,22.71
2023-03-31T11:14:17.175Z,22.75
2023-03-31T11:17:23.827Z,22.65
2023-03-31T11:20:24.772Z,22.54
2023-03-31T11:23:19.172Z,22.45
2023-03-31T11:26:03.409Z,22.48
2023-03-31T11:28:42.050Z,22.58
2023-03-31T11:31:32.810Z,22.55
2023-03-31T11:34:21.663Z,22.55
2023-03-31T11:36:54.455Z,22.64
2023-03-31T11:39:51.020Z,22.68
2023-03-31T11:42:41.657Z,22.72
2023-03-31T11:45:19.471Z,22.78
2023-03-31T11:47:54.285Z,22.82
2023-03-31T11:50:29.095Z,22.86
2023-03-31T11:53:09.285Z,22.89
2023-03-31T11:55:40.993Z,22.99
2023-03-31T11:58:25.934Z,23.06
2023-03-31T12:01:08.585Z,23.16
2023-03-31T12:03:55.917Z,23.39
2023-03-31T12:06:31.834Z,23.63
2023-03-31T12:09:09.945Z,23.66
2023-03-31T12:12:12.432Z,23.61
2023-03-31T12:15:08.402Z,23.61
2023-03-31T12:17:43.079Z,23.75
2023-03-31T12:20:42.731Z,23.80
2023-03-31T12:23:30.917Z,23.84
2023-03-31T12:26:25.236Z,23.94
2023-03-31T12:29:04.580Z,23.97
2023-03-31T12:31:36.898Z,23.98
2023-03-31T12:34:12.022Z,24.14
2023-03-31T12:36:57.138Z,24.30
2023-03-31T12:39:35.760Z,24.33
2023-03-31T12:42:34.436Z,24.40
2023-03-31T12:45:30.146Z,24.56
2023-03-31T12:48:40.093Z,24.63
2023-03-31T12:51:25.270Z,24.73
2023-03-31T12:54:07.368Z,24.82
2023-03-31T12:57:02.047Z,24.89
2023-03-31T12:59:40.219Z,25.00
2023-03-31T13:02:17.044Z,25.13
2023-03-31T13:04:46.865Z,25.26
2023-03-31T13:07:28.217Z,25.33
2023-03-31T13:10:22.882Z,25.47
2023-03-31T13:13:06.684Z,25.60
2023-03-31T13:15:37.532Z,25.68
2023-03-31T13:18:09.858Z,25.84
2023-03-31T13:20:42.810Z,25.96
2023-03-31T13:23:30.005Z,26.06
2023-03-31T13:26:01.317Z,26.19
2023-03-31T13:28:43.637Z,26.29
2023-03-31T13:31:15.404Z,26.32
2023-03-31T13:34:00.398Z,26.51
2023-03-31T13:36:36.517Z,26.59
2023-03-31T13:39:36.952Z,26.67
2023-03-31T13:42:28.623Z,26.86
2023-03-31T13:45:33.676Z,27.04
2023-03-31T13:48:10.360Z,27.21
2023-03-31T13:50:59.014Z,27.31
2023-03-31T13:53:47.237Z,27.31
2023-03-31T13:56:41.575Z,27.56
2023-03-31T13:59:31.461Z,27.61
2023-03-31T14:02:23.552Z,27.82
2023-03-31T14:05:02.779Z,28.10
2023-03-31T14:07:33.031Z,28.25
2023-03-31T14:10:04.163Z,28.50
2023-03-31T14:12:38.619Z,28.57
2023-03-31T14:15:19.793Z,28.61
2023-03-31T14:17:50.269Z,28.87
2023-03-31T14:20:29.621Z,29.02
2023-03-31T14:23:05.856Z,29.18
2023-03-31T14:25:38.988Z,29.35
2023-03-31T14:28:20.350Z,29.47
2023-03-31T14:31:12.146Z,29.56
2023-03-31T14:34:06.902Z,29.62
2023-03-31T14:36:47.982Z,29.80
2023-03-31T14:39:24.461Z,29.94
2023-03-31T14:41:56.260Z,30.05
2023-03-31T14:44:28.156Z,30.18
2023-03-31T14:47:23.735Z,30.27
2023-03-31T14:50:17.871Z,30.08
2023-03-31T14:52:54.745Z,30.25
2023-03-31T14:55:39.325Z,30.55
2023-03-31T14:58:29.132Z,30.61
2023-03-31T15:01:00.255Z,30.56
2023-03-31T15:03:31.473Z,30.99
2023-03-31T15:06:04.009Z,31.26
2023-03-31T15:08:36.470Z,31.40
2023-03-31T15:11:13.199Z,31.13
2023-03-31T15:14:04.563Z,30.92
2023-03-31T15:16:46.545Z,31.02
2023-03-31T15:19:26.057Z,31.04
2023-03-31T15:22:18.600Z,31.04
2023-03-31T15:24:48.838Z,31.30
2023-03-31T15:27:45.612Z,31.57
2023-03-31T15:30:23.005Z,31.81
2023-03-31T15:32:58.816Z,31.70
2023-03-31T15:35:36.852Z,31.94
2023-03-31T15:38:08.509Z,31.78
2023-03-31T15:40:42.034Z,31.99
2023-03-31T15:43:47.704Z,32.01
2023-03-31T15:46:42.478Z,32.35
2023-03-31T15:49:26.940Z,32.48
2023-03-31T15:52:02.503Z,32.42
2023-03-31T15:54:35.640Z,32.35
2023-03-31T15:57:08.100Z,32.65
2023-03-31T16:02:36.192Z,32.79
2023-03-31T16:05:10.917Z,32.79
2023-03-31T16:07:50.768Z,32.79
2023-03-31T16:10:24.383Z,32.87
2023-03-31T16:12:59.873Z,32.28
2023-03-31T16:15:39.441Z,32.59
2023-03-31T16:18:14.297Z,33.06
2023-03-31T16:20:51.807Z,33.28
2023-03-31T16:23:27.269Z,33.35
2023-03-31T16:26:02.937Z,33.50
2023-03-31T16:28:38.896Z,33.51
2023-03-31T16:31:30.997Z,33.65
2023-03-31T16:34:01.598Z,33.65
2023-03-31T16:36:32.417Z,33.40
2023-03-31T16:39:06.168Z,33.34
2023-03-31T16:41:38.115Z,33.65
2023-03-31T16:44:08.307Z,33.98
2023-03-31T16:46:38.495Z,33.81
2023-03-31T16:49:08.604Z,33.89
2023-03-31T16:51:39.499Z,33.61
2023-03-31T16:54:09.498Z,33.95
2023-03-31T16:56:39.710Z,33.88
2023-03-31T16:59:10.105Z,34.12
2023-03-31T17:01:40.318Z,33.81
2023-03-31T17:04:10.653Z,34.09
2023-03-31T17:06:40.819Z,33.74
2023-03-31T17:09:10.732Z,33.45
2023-03-31T17:11:41.030Z,33.98
2023-03-31T17:14:12.121Z,34.20
2023-03-31T17:16:48.505Z,34.49
2023-03-31T17:19:19.191Z,34.88
2023-03-31T17:21:49.321Z,34.93
2023-03-31T17:24:19.826Z,35.06
2023-03-31T17:26:50.294Z,34.86
2023-03-31T17:29:20.458Z,34.88
2023-03-31T17:31:50.975Z,34.96
2023-03-31T17:34:21.399Z,34.76
2023-03-31T17:36:52.618Z,34.60
2023-03-31T17:39:22.749Z,34.40
2023-03-31T17:41:53.069Z,34.19
2023-03-31T17:44:23.303Z,34.22
2023-03-31T17:46:53.679Z,34.42
2023-03-31T17:49:24.834Z,35.03
2023-03-31T17:51:55.110Z,35.78
2023-03-31T17:54:25.291Z,36.47
2023-03-31T17:56:55.726Z,37.10
2023-03-31T17:59:25.916Z,36.54
2023-03-31T18:01:56.420Z,36.50
2023-03-31T18:04:26.899Z,37.31
2023-03-31T18:06:58.557Z,37.36
2023-03-31T18:09:29.346Z,37.46
2023-03-31T18:11:59.952Z,36.97
2023-03-31T18:14:30.212Z,34.08
2023-03-31T18:17:00.387Z,32.82
2023-03-31T18:19:31.116Z,32.52
2023-03-31T18:22:01.483Z,32.31
2023-03-31T18:24:33.108Z,34.32
2023-03-31T18:27:03.300Z,33.28
2023-03-31T18:29:33.516Z,33.65
2023-03-31T18:32:04.091Z,34.70
2023-03-31T18:34:34.862Z,35.71
2023-03-31T18:37:06.649Z,34.31
2023-03-31T18:39:37.061Z,36.50
2023-03-31T18:42:07.433Z,33.69
2023-03-31T18:44:37.671Z,32.43
2023-03-31T18:47:07.967Z,31.78
2023-03-31T18:49:38.550Z,32.15
2023-03-31T18:52:08.661Z,32.09
2023-03-31T18:54:38.522Z,32.32
2023-03-31T18:57:08.810Z,32.75
2023-03-31T18:59:38.930Z,32.77
2023-03-31T19:02:09.721Z,32.29
2023-03-31T19:04:39.940Z,31.70
2023-03-31T19:07:10.138Z,31.77
2023-03-31T19:09:40.375Z,31.78
2023-03-31T19:12:10.506Z,31.61
2023-03-31T19:14:42.410Z,31.77
2023-03-31T19:17:13.136Z,31.73
2023-03-31T19:19:43.363Z,31.57
2023-03-31T19:22:13.607Z,31.33
2023-03-31T19:24:44.167Z,30.96
2023-03-31T19:27:14.865Z,30.79
2023-03-31T19:29:45.074Z,30.90
2023-03-31T19:32:15.713Z,30.92
2023-03-31T19:34:47.779Z,30.92
2023-03-31T19:37:17.938Z,30.68
2023-03-31T19:39:48.014Z,30.66
2023-03-31T19:42:19.023Z,30.69
2023-03-31T19:44:49.154Z,30.64
2023-03-31T19:47:19.125Z,30.45
2023-03-31T19:49:49.311Z,30.36
2023-03-31T19:52:19.493Z,30.27
2023-03-31T19:54:49.694Z,30.29
2023-03-31T19:57:19.858Z,30.10
2023-03-31T19:59:49.975Z,30.04
2023-03-31T20:02:20.190Z,30.13
2023-03-31T20:04:50.446Z,30.10
2023-03-31T20:07:20.975Z,30.10
2023-03-31T20:09:51.099Z,29.90
2023-03-31T20:12:21.363Z,29.88
2023-03-31T20:14:51.455Z,29.84
2023-03-31T20:17:22.061Z,29.74
2023-03-31T20:19:52.280Z,29.73
2023-03-31T20:22:22.803Z,29.78
2023-03-31T20:24:53.044Z,29.74
2023-03-31T20:27:27.448Z,29.64
2023-03-31T20:29:57.671Z,29.63
2023-03-31T20:32:28.122Z,29.57
2023-03-31T20:34:59.188Z,29.56
2023-03-31T20:37:29.762Z,29.49
2023-03-31T20:40:00.219Z,29.42
2023-03-31T20:42:33.342Z,29.36
2023-03-31T20:45:03.464Z,29.35
2023-03-31T20:47:35.984Z,29.36
2023-03-31T20:50:06.925Z,29.56
2023-03-31T20:52:37.857Z,29.57
2023-03-31T20:55:08.703Z,29.47
2023-03-31T20:57:38.804Z,29.40
2023-03-31T21:00:08.571Z,29.49
2023-03-31T21:02:39.646Z,29.35
2023-03-31T21:05:10.115Z,29.40
2023-03-31T21:07:40.308Z,29.50
2023-03-31T21:10:10.748Z,29.29
2023-03-31T21:12:42.364Z,29.25
2023-03-31T21:15:12.978Z,29.09
2023-03-31T21:17:43.156Z,28.92
2023-03-31T21:20:13.433Z,28.87
2023-03-31T21:22:43.577Z,28.85
2023-03-31T21:25:16.495Z,28.71
2023-03-31T21:27:46.811Z,28.67
2023-03-31T21:30:17.272Z,28.58
2023-03-31T21:32:48.264Z,28.55
2023-03-31T21:35:19.554Z,28.50
2023-03-31T21:37:50.406Z,28.41
2023-03-31T21:40:20.618Z,28.37
2023-03-31T21:42:50.922Z,28.40
2023-03-31T21:45:21.075Z,28.34
2023-03-31T21:47:50.816Z,28.31
2023-03-31T21:50:20.679Z,28.31
2023-03-31T21:52:50.088Z,28.34
2023-03-31T21:55:32.389Z,28.30
2023-03-31T21:58:04.886Z,28.25
2023-03-31T22:00:37.297Z,28.24
2023-03-31T22:03:25.720Z,28.17
2023-03-31T22:05:58.076Z,28.13
2023-03-31T22:08:30.122Z,28.07
2023-03-31T22:11:01.416Z,28.10
2023-03-31T22:13:31.863Z,28.06
2023-03-31T22:16:03.230Z,28.10
2023-03-31T22:18:38.118Z,28.09
2023-03-31T22:21:16.576Z,28.04
2023-03-31T22:23:46.961Z,28.02
2023-03-31T22:26:17.305Z,28.04
2023-03-31T22:28:47.473Z,27.97
2023-03-31T22:31:17.917Z,28.02
2023-03-31T22:34:07.656Z,27.93
2023-03-31T22:36:38.308Z,27.62
2023-03-31T22:39:08.792Z,27.20
2023-03-31T22:41:38.932Z,25.14
2023-03-31T22:44:09.941Z,23.70
2023-03-31T22:46:40.883Z,23.22
2023-03-31T22:49:11.686Z,23.13
2023-03-31T22:51:42.948Z,23.09
2023-03-31T22:54:24.135Z,23.15
2023-03-31T22:57:14.550Z,23.00
2023-03-31T22:59:44.919Z,23.09
2023-03-31T23:02:15.232Z,23.02
2023-03-31T23:05:15.726Z,22.94
2023-03-31T23:07:45.970Z,23.03
2023-03-31T23:10:16.093Z,23.02
2023-03-31T23:12:46.330Z,23.08
2023-03-31T23:15:16.186Z,22.96
2023-03-31T23:17:46.432Z,23.03
2023-03-31T23:20:17.400Z,22.95
2023-03-31T23:22:47.549Z,22.88
2023-03-31T23:25:17.740Z,22.76
2023-03-31T23:27:49.017Z,22.82
2023-03-31T23:30:38.745Z,22.73
2023-03-31T23:33:08.428Z,22.68
2023-03-31T23:35:39.075Z,22.76
2023-03-31T23:38:09.646Z,22.72
2023-03-31T23:40:40.911Z,22.79
2023-03-31T23:43:11.103Z,22.86
2023-03-31T23:45:40.852Z,22.82
2023-03-31T23:48:11.198Z,22.79
2023-03-31T23:50:41.726Z,22.78
2023-03-31T23:53:12.399Z,22.76
2023-03-31T23:55:42.667Z,22.81
2023-03-31T23:58:12.916Z,22.79
